Time;durP1;ratioP1;P1;durP2;ratioP2;P2;SDS_P1;SDS_P2;PMS_P1;PMS_P2;Temp;Humidity;BMP_temperature;BMP_pressure;BME280_temperature;BME280_humidity;BME280_pressure;Samples;Min_cycle;Max_cycle;Signal;HPM_P1;HPM_P2
2022/01/02 00:00:19;;;;;;;5.17;4.10;;;;;;;1.37;100.00;97377.05;1633879;87;21057;-73
2022/01/02 00:03:01;;;;;;;5.03;3.90;;;;;;;1.37;100.00;97379.70;1640493;87;21033;-72
2022/01/02 00:05:32;;;;;;;6.77;3.70;;;;;;;1.36;100.00;97390.02;1616781;89;21093;-74
2022/01/02 00:08:07;;;;;;;4.83;3.93;;;;;;;1.33;100.00;97389.38;1622700;87;21053;-72
2022/01/02 00:10:58;;;;;;;4.00;3.23;;;;;;;1.33;100.00;97387.22;1649200;87;21077;-74
2022/01/02 00:13:35;;;;;;;4.05;3.22;;;;;;;1.30;100.00;97388.39;1627759;87;21554;-74
2022/01/02 00:16:06;;;;;;;4.37;3.20;;;;;;;1.30;100.00;97391.56;1649682;87;21038;-74
2022/01/02 00:18:37;;;;;;;4.23;3.10;;;;;;;1.28;100.00;97396.23;1653280;86;21530;-74
2022/01/02 00:21:07;;;;;;;3.87;2.93;;;;;;;1.28;100.00;97401.05;1656056;87;21113;-73
2022/01/02 00:23:48;;;;;;;4.40;3.40;;;;;;;1.29;100.00;97405.39;1633166;87;21080;-75
2022/01/02 00:26:05;;;;;;;4.47;3.40;;;;;;;1.31;100.00;97401.19;1632532;87;21065;-74
2022/01/02 00:28:34;;;;;;;4.77;3.30;;;;;;;1.28;100.00;97406.38;1654277;87;21148;-76
2022/01/02 00:31:01;;;;;;;3.33;3.00;;;;;;;1.27;100.00;97405.22;1632209;87;21081;-74
2022/01/02 00:33:28;;;;;;;3.40;3.07;;;;;;;1.26;100.00;97420.88;1654120;87;21108;-74
2022/01/02 00:35:55;;;;;;;4.07;2.90;;;;;;;1.24;100.00;97425.05;1654012;87;21021;-73
2022/01/02 00:38:23;;;;;;;4.43;3.00;;;;;;;1.27;100.00;97426.52;1631936;87;21053;-74
2022/01/02 00:40:53;;;;;;;4.67;3.00;;;;;;;1.26;100.00;97435.52;1654138;87;21053;-73
2022/01/02 00:43:25;;;;;;;5.57;3.17;;;;;;;1.25;100.00;97421.36;1632211;87;21092;-72
2022/01/02 00:45:52;;;;;;;5.13;3.60;;;;;;;1.26;100.00;97423.03;1654334;87;21061;-72
2022/01/02 00:48:24;;;;;;;5.47;3.30;;;;;;;1.24;100.00;97427.71;1654163;87;21061;-73
2022/01/02 00:51:04;;;;;;;3.37;2.80;;;;;;;1.23;100.00;97438.53;1654342;87;21041;-70
2022/01/02 00:53:36;;;;;;;2.97;2.47;;;;;;;1.22;100.00;97431.53;1594361;89;21116;-74
2022/01/02 00:56:03;;;;;;;2.63;2.43;;;;;;;1.22;100.00;97447.03;1596687;87;21036;-71
2022/01/02 00:58:48;;;;;;;3.17;2.50;;;;;;;1.22;100.00;97448.84;1661751;86;21082;-72
2022/01/02 01:01:16;;;;;;;4.67;2.47;;;;;;;1.22;100.00;97451.02;1653205;87;21554;-73
2022/01/02 01:03:45;;;;;;;2.50;2.30;;;;;;;1.21;100.00;97451.19;1605938;88;21037;-74
2022/01/02 01:06:12;;;;;;;3.17;2.87;;;;;;;1.18;100.00;97465.66;1606796;89;21071;-74
2022/01/02 01:08:40;;;;;;;2.30;2.10;;;;;;;1.16;100.00;97465.02;1602880;88;21074;-73
2022/01/02 01:11:11;;;;;;;2.37;2.10;;;;;;;1.16;100.00;97460.20;1577934;90;21137;-73
2022/01/02 01:13:38;;;;;;;2.60;2.33;;;;;;;1.18;100.00;97459.52;1599247;90;21601;-74
2022/01/02 01:16:05;;;;;;;3.30;2.13;;;;;;;1.18;100.00;97466.17;1599497;90;21042;-71
2022/01/02 01:18:32;;;;;;;2.50;2.30;;;;;;;1.14;100.00;97467.84;1619294;88;21054;-72
2022/01/02 01:21:02;;;;;;;2.07;1.83;;;;;;;1.14;100.00;97461.19;1627560;88;21161;-73
2022/01/02 01:23:29;;;;;;;2.63;1.80;;;;;;;1.12;100.00;97467.20;1627551;88;21551;-71
2022/01/02 01:25:58;;;;;;;2.13;1.93;;;;;;;1.12;100.00;97466.38;1627735;88;21085;-73
2022/01/02 01:28:28;;;;;;;2.33;2.13;;;;;;;1.11;100.00;97468.70;1627542;88;21224;-72
2022/01/02 01:30:57;;;;;;;2.20;2.00;;;;;;;1.08;100.00;97471.22;1627453;88;21044;-72
2022/01/02 01:33:25;;;;;;;3.93;2.73;;;;;;;1.05;100.00;97463.57;1627330;88;21110;-73
2022/01/02 01:35:52;;;;;;;3.23;2.90;;;;;;;1.04;100.00;97473.05;1627651;88;21054;-71
2022/01/02 01:38:21;;;;;;;3.30;2.70;;;;;;;1.03;100.00;97473.56;1584455;88;21237;-73
2022/01/02 01:41:08;;;;;;;2.63;2.13;;;;;;;1.01;100.00;97474.72;1627508;88;21058;-71
2022/01/02 01:43:50;;;;;;;2.37;1.90;;;;;;;1.00;100.00;97483.22;1627356;88;21047;-72
2022/01/02 01:46:07;;;;;;;2.00;1.87;;;;;;;1.00;100.00;97491.71;1624338;88;21105;-72
2022/01/02 01:48:34;;;;;;;1.93;1.80;;;;;;;0.97;100.00;97492.05;1627762;88;21022;-73
2022/01/02 01:51:01;;;;;;;1.83;1.73;;;;;;;0.95;100.00;97509.00;1654575;86;21022;-72
2022/01/02 01:53:28;;;;;;;2.20;1.33;;;;;;;0.97;100.00;97502.69;1658829;86;21041;-70
2022/01/02 01:55:56;;;;;;;1.77;1.67;;;;;;;0.95;100.00;97497.03;1658685;86;21538;-71
2022/01/02 01:58:24;;;;;;;2.10;1.67;;;;;;;0.95;100.00;97510.84;1660559;85;21510;-71
2022/01/02 02:00:51;;;;;;;2.20;2.00;;;;;;;0.94;100.00;97511.35;1686863;85;20979;-70
2022/01/02 02:03:21;;;;;;;2.17;2.00;;;;;;;0.93;100.00;97512.34;1682446;85;21107;-71
2022/01/02 02:05:49;;;;;;;1.80;1.70;;;;;;;0.93;100.00;97515.00;1685543;85;21001;-71
2022/01/02 02:08:19;;;;;;;1.97;1.73;;;;;;;0.91;100.00;97524.99;1684440;85;21034;-70
2022/01/02 02:10:54;;;;;;;1.80;1.70;;;;;;;0.91;100.00;97521.00;1681647;85;21078;-70
2022/01/02 02:13:15;;;;;;;2.20;2.00;;;;;;;0.89;100.00;97532.83;1678896;85;22179;-71
2022/01/02 02:15:45;;;;;;;3.33;2.20;;;;;;;0.87;100.00;97528.19;1658975;85;21552;-70
2022/01/02 02:18:12;;;;;;;4.13;2.20;;;;;;;0.86;100.00;97536.64;1692020;83;20982;-71
2022/01/02 02:20:41;;;;;;;2.40;2.10;;;;;;;0.87;100.00;97540.16;1675112;84;21029;-69
2022/01/02 02:23:15;;;;;;;2.27;1.90;;;;;;;0.85;100.00;97538.14;1732622;81;21490;-70
2022/01/02 02:25:43;;;;;;;2.13;1.80;;;;;;;0.83;100.00;97546.80;1729959;81;21014;-70
2022/01/02 02:28:16;;;;;;;2.67;2.23;;;;;;;0.81;100.00;97544.30;1759132;81;21105;-71
2022/01/02 02:30:47;;;;;;;1.98;1.87;;;;;;;0.80;100.00;97555.11;1759582;81;21072;-71
2022/01/02 02:33:15;;;;;;;2.07;1.93;;;;;;;0.78;100.00;97553.98;1759607;81;21041;-70
2022/01/02 02:35:44;;;;;;;2.13;2.00;;;;;;;0.75;100.00;97557.79;1759175;81;21475;-69
2022/01/02 02:38:11;;;;;;;2.17;1.80;;;;;;;0.73;100.00;97569.10;1759080;81;21100;-71
2022/01/02 02:40:40;;;;;;;1.93;1.80;;;;;;;0.72;100.00;97566.61;1759265;81;21009;-70
2022/01/02 02:49:00;;;;;;;2.10;1.90;;;;;;;0.68;100.00;97590.05;1759483;81;21132;-70
2022/01/02 02:51:05;;;;;;;2.70;2.23;;;;;;;0.66;100.00;97595.23;1754818;81;21020;-69
2022/01/02 02:53:42;;;;;;;4.10;3.00;;;;;;;0.64;100.00;97594.53;1759567;81;21487;-70
2022/01/02 02:56:17;;;;;;;3.20;2.90;;;;;;;0.63;100.00;97597.70;1759427;81;21024;-69
2022/01/02 02:58:42;;;;;;;2.23;2.03;;;;;;;0.62;100.00;97600.53;1759763;81;21005;-70
2022/01/02 03:01:14;;;;;;;1.60;1.50;;;;;;;0.64;100.00;97602.52;1759350;81;21738;-70
2022/01/02 03:03:42;;;;;;;1.77;1.67;;;;;;;0.62;100.00;97609.36;1716494;83;21047;-70
2022/01/02 03:06:09;;;;;;;1.70;1.60;;;;;;;0.63;100.00;97620.82;1723474;83;21027;-70
2022/01/02 03:08:36;;;;;;;2.07;1.93;;;;;;;0.62;100.00;97627.12;1714626;83;21569;-70
2022/01/02 03:11:04;;;;;;;1.63;1.53;;;;;;;0.62;100.00;97629.78;1642156;86;21090;-70
2022/01/02 03:13:31;;;;;;;3.30;2.40;;;;;;;0.61;100.00;97636.12;1664586;86;21098;-69
2022/01/02 03:15:59;;;;;;;2.17;1.97;;;;;;;0.60;100.00;97635.27;1664792;86;21127;-67
2022/01/02 03:18:27;;;;;;;2.07;1.97;;;;;;;0.60;100.00;97631.78;1660430;86;21087;-67
2022/01/02 03:20:53;;;;;;;1.50;1.40;;;;;;;0.58;100.00;97654.55;1653482;87;21047;-68
2022/01/02 03:23:21;;;;;;;1.60;1.50;;;;;;;0.55;100.00;97650.92;1652991;87;21059;-68
2022/01/02 03:25:49;;;;;;;2.63;2.43;;;;;;;0.54;100.00;97661.20;1631342;87;21071;-68
2022/01/02 03:28:17;;;;;;;1.67;1.57;;;;;;;0.53;100.00;97672.35;1653632;87;21043;-68
2022/01/02 03:30:45;;;;;;;2.63;2.10;;;;;;;0.52;100.00;97680.48;1653527;87;21106;-68
2022/01/02 03:33:11;;;;;;;2.50;2.30;;;;;;;0.51;100.00;97690.30;1631509;87;21528;-69
2022/01/02 03:35:38;;;;;;;3.27;2.20;;;;;;;0.52;100.00;97701.77;1653586;87;21031;-69
2022/01/02 03:38:07;;;;;;;2.40;2.20;;;;;;;0.50;100.00;97709.91;1653718;87;21146;-70
2022/01/02 03:40:34;;;;;;;1.40;1.30;;;;;;;0.49;100.00;97712.72;1630675;87;21575;-69
2022/01/02 03:43:02;;;;;;;1.60;1.50;;;;;;;0.47;100.00;97720.03;1653106;87;21559;-69
2022/01/02 03:45:29;;;;;;;1.30;1.20;;;;;;;0.46;100.00;97732.51;1652418;87;21448;-69
2022/01/02 03:47:57;;;;;;;1.40;1.20;;;;;;;0.46;100.00;97732.51;1652529;87;21111;-69
2022/01/02 03:50:24;;;;;;;1.13;1.13;;;;;;;0.46;100.00;97738.30;1652203;87;21052;-69
2022/01/02 03:52:51;;;;;;;1.20;1.13;;;;;;;0.43;100.00;97737.31;1652296;87;21087;-70
2022/01/02 03:55:18;;;;;;;1.57;1.47;;;;;;;0.41;100.00;97752.10;1629780;87;21047;-69
2022/01/02 03:57:45;;;;;;;1.63;1.20;;;;;;;0.39;100.00;97755.42;1652188;87;21038;-68
2022/01/02 04:00:14;;;;;;;1.30;1.20;;;;;;;0.36;100.00;97765.88;1668111;85;21104;-69
2022/01/02 04:02:41;;;;;;;1.40;1.30;;;;;;;0.36;100.00;97777.83;1694547;83;21035;-69
2022/01/02 04:05:10;;;;;;;1.30;1.20;;;;;;;0.35;100.00;97780.17;1708214;84;21087;-69
2022/01/02 04:07:38;;;;;;;1.20;1.10;;;;;;;0.34;100.00;97782.48;1687698;84;21023;-68
2022/01/02 04:10:08;;;;;;;1.30;1.20;;;;;;;0.32;100.00;97788.94;1690492;85;21557;-68
2022/01/02 04:12:39;;;;;;;1.50;1.40;;;;;;;0.31;100.00;97792.61;1690604;85;21037;-69
2022/01/02 04:15:09;;;;;;;1.90;1.40;;;;;;;0.30;100.00;97798.91;1690269;85;21104;-68
2022/01/02 04:17:38;;;;;;;2.80;1.20;;;;;;;0.28;100.00;97785.77;1690619;84;22567;-69
2022/01/02 04:20:06;;;;;;;1.27;1.17;;;;;;;0.25;100.00;97794.56;1720106;83;21015;-68
2022/01/02 04:22:35;;;;;;;0.90;0.90;;;;;;;0.24;100.00;97807.03;1695218;83;21050;-68
2022/01/02 04:25:04;;;;;;;1.03;1.03;;;;;;;0.21;100.00;97813.98;1718076;83;21694;-68
2022/01/02 04:27:31;;;;;;;1.00;1.00;;;;;;;0.21;100.00;97825.12;1718825;83;21023;-69
2022/01/02 04:29:59;;;;;;;0.87;0.80;;;;;;;0.17;100.00;97820.13;1719493;83;21062;-68
2022/01/02 04:32:26;;;;;;;1.07;0.97;;;;;;;0.16;100.00;97826.92;1720153;83;21078;-69
2022/01/02 04:34:54;;;;;;;1.30;1.20;;;;;;;0.14;100.00;97830.23;1692950;83;21014;-69
2022/01/02 04:37:22;;;;;;;2.60;1.37;;;;;;;0.09;100.00;97845.34;1719463;83;21120;-69
2022/01/02 04:39:49;;;;;;;1.70;1.30;;;;;;;0.08;100.00;97845.00;1717546;83;21059;-69
2022/01/02 04:42:17;;;;;;;1.07;1.07;;;;;;;0.09;100.00;97864.42;1718671;83;21042;-69
2022/01/02 04:44:45;;;;;;;1.70;1.20;;;;;;;0.09;100.00;97863.09;1718892;83;21508;-68
2022/01/02 04:47:13;;;;;;;1.47;1.37;;;;;;;0.07;100.00;97867.27;1693979;83;21053;-69
2022/01/02 04:49:42;;;;;;;0.90;0.80;;;;;;;0.07;100.00;97886.34;1717587;83;21035;-68
2022/01/02 04:52:09;;;;;;;1.60;1.30;;;;;;;0.06;100.00;97892.16;1718779;83;21044;-68
2022/01/02 04:54:37;;;;;;;1.50;1.40;;;;;;;0.05;100.00;97898.45;1718733;83;21073;-68
2022/01/02 04:57:05;;;;;;;2.33;1.40;;;;;;;0.04;100.00;97901.30;1718230;83;21035;-68
2022/01/02 04:59:32;;;;;;;1.40;1.30;;;;;;;0.04;100.00;97913.25;1692833;83;21558;-70
2022/01/02 05:01:59;;;;;;;1.43;1.33;;;;;;;0.03;100.00;97919.54;1719064;83;21053;-68
2022/01/02 05:04:26;;;;;;;1.10;1.00;;;;;;;0.01;100.00;97941.45;1697946;83;21034;-70
2022/01/02 05:06:54;;;;;;;1.53;1.40;;;;;;;-0.01;100.00;97949.07;1724227;83;21559;-69
2022/01/02 05:09:22;;;;;;;1.77;1.40;;;;;;;0.00;100.00;97949.93;1723906;83;21001;-70
2022/01/02 05:11:52;;;;;;;2.13;1.93;;;;;;;-0.04;100.00;97958.67;1724115;83;21080;-69
2022/01/02 05:14:19;;;;;;;1.40;1.30;;;;;;;-0.07;100.00;97970.96;1723584;83;21063;-69
2022/01/02 05:16:47;;;;;;;2.83;1.90;;;;;;;-0.09;100.00;97974.75;1724109;82;21005;-70
2022/01/02 05:19:15;;;;;;;2.93;1.60;;;;;;;-0.10;100.00;97979.23;1715005;83;21030;-68
2022/01/02 05:21:42;;;;;;;2.93;2.10;;;;;;;-0.12;100.00;98001.64;1707922;84;21058;-69
2022/01/02 05:24:09;;;;;;;2.50;1.80;;;;;;;-0.14;100.00;98016.88;1706841;84;21137;-68
2022/01/02 05:26:39;;;;;;;3.13;1.87;;;;;;;-0.16;100.00;98031.66;1687260;84;21057;-68
2022/01/02 05:29:07;;;;;;;3.83;1.90;;;;;;;-0.16;100.00;98035.65;1706524;84;21588;-68
2022/01/02 05:31:34;;;;;;;2.57;1.40;;;;;;;-0.17;100.00;98050.41;1706905;83;21013;-67
2022/01/02 05:34:01;;;;;;;3.17;2.20;;;;;;;-0.20;100.00;98055.01;1707086;83;21057;-69
2022/01/02 05:36:29;;;;;;;4.20;2.23;;;;;;;-0.21;100.00;98069.80;1707034;84;21017;-69
2022/01/02 05:38:56;;;;;;;1.30;1.20;;;;;;;-0.21;100.00;98077.27;1707423;84;21034;-70
2022/01/02 05:41:23;;;;;;;2.63;1.80;;;;;;;-0.21;100.00;98087.06;1688204;84;21363;-69
2022/01/02 05:43:51;;;;;;;2.50;2.03;;;;;;;-0.22;100.00;98095.50;1707952;83;21527;-69
2022/01/02 05:46:18;;;;;;;2.60;1.70;;;;;;;-0.22;100.00;98104.80;1708053;84;21041;-71
2022/01/02 05:48:46;;;;;;;2.10;1.50;;;;;;;-0.22;100.00;98119.41;1708124;83;21017;-70
2022/01/02 05:51:13;;;;;;;4.00;2.60;;;;;;;-0.20;100.00;98119.27;1708132;84;20978;-70
2022/01/02 05:53:40;;;;;;;3.30;1.77;;;;;;;-0.22;100.00;98131.36;1688002;84;21061;-68
2022/01/02 05:56:07;;;;;;;1.83;1.63;;;;;;;-0.23;100.00;98135.02;1708125;83;21073;-68
2022/01/02 05:58:35;;;;;;;3.93;1.63;;;;;;;-0.23;100.00;98158.93;1707806;84;21003;-69
2022/01/02 06:01:03;;;;;;;2.57;1.40;;;;;;;-0.24;100.00;98176.34;1708366;83;21093;-70
2022/01/02 06:03:32;;;;;;;1.93;1.53;;;;;;;-0.23;100.00;98179.32;1699624;84;21568;-71
2022/01/02 06:06:00;;;;;;;1.87;1.57;;;;;;;-0.24;100.00;98181.66;1694367;85;21024;-70
2022/01/02 06:08:27;;;;;;;2.00;1.50;;;;;;;-0.24;100.00;98181.66;1652361;84;21506;-69
2022/01/02 06:10:55;;;;;;;2.10;1.17;;;;;;;-0.25;100.00;98194.58;1688070;84;21058;-71
2022/01/02 06:13:22;;;;;;;1.20;1.10;;;;;;;-0.27;100.00;98217.30;1708187;84;21633;-71
2022/01/02 06:15:51;;;;;;;1.47;1.37;;;;;;;-0.28;100.00;98217.47;1708310;83;21073;-71
2022/01/02 06:18:26;;;;;;;1.70;1.60;;;;;;;-0.27;100.00;98217.30;1707562;84;21046;-70
2022/01/02 06:20:53;;;;;;;1.70;1.23;;;;;;;-0.22;100.00;98225.66;1706315;83;21080;-70
2022/01/02 06:23:21;;;;;;;1.03;0.97;;;;;;;-0.20;100.00;98237.47;1749936;81;21087;-71
2022/01/02 06:25:49;;;;;;;1.60;1.30;;;;;;;-0.20;100.00;98250.26;1749358;82;21039;-70
2022/01/02 06:28:17;;;;;;;1.57;1.00;;;;;;;-0.20;100.00;98254.73;1749531;81;21029;-71
2022/01/02 06:30:44;;;;;;;2.50;1.93;;;;;;;-0.22;100.00;98258.87;1749558;82;20997;-70
2022/01/02 06:33:13;;;;;;;1.77;1.67;;;;;;;-0.24;100.00;98264.00;1749678;82;21083;-72
2022/01/02 06:35:40;;;;;;;1.27;1.17;;;;;;;-0.29;100.00;98275.05;1749762;82;21017;-72
2022/01/02 06:38:16;;;;;;;1.57;1.17;;;;;;;-0.32;100.00;98293.95;1739088;81;21544;-71
2022/01/02 06:40:45;;;;;;;3.33;1.50;;;;;;;-0.35;100.00;98289.39;1682652;85;21553;-72
2022/01/02 06:43:14;;;;;;;2.17;1.57;;;;;;;-0.37;100.00;98290.89;1682668;85;21583;-71
2022/01/02 06:45:44;;;;;;;2.40;1.70;;;;;;;-0.41;100.00;98304.09;1682935;84;21044;-70
2022/01/02 06:48:11;;;;;;;2.23;1.30;;;;;;;-0.41;100.00;98298.77;1655008;85;21035;-71
2022/01/02 06:50:39;;;;;;;1.60;1.40;;;;;;;-0.42;100.00;98293.14;1677616;85;21050;-72
2022/01/02 06:53:06;;;;;;;1.50;1.40;;;;;;;-0.42;100.00;98287.83;1678327;84;21531;-73
2022/01/02 06:55:34;;;;;;;1.57;1.47;;;;;;;-0.42;100.00;98291.30;1678051;85;21656;-73
2022/01/02 06:58:02;;;;;;;1.87;1.70;;;;;;;-0.41;100.00;98292.14;1678139;85;21583;-70
2022/01/02 07:00:30;;;;;;;3.77;1.57;;;;;;;-0.41;100.00;98299.64;1626963;88;21580;-72
2022/01/02 07:02:57;;;;;;;4.60;2.00;;;;;;;-0.40;100.00;98300.46;1627058;88;21047;-70
2022/01/02 07:05:24;;;;;;;2.60;1.30;;;;;;;-0.40;100.00;98296.48;1626939;88;21087;-71
2022/01/02 07:07:52;;;;;;;1.57;1.27;;;;;;;-0.36;100.00;98301.02;1646945;87;21068;-70
2022/01/02 07:10:22;;;;;;;2.60;1.40;;;;;;;-0.35;100.00;98313.29;1646038;87;21031;-72
2022/01/02 07:12:49;;;;;;;2.50;1.63;;;;;;;-0.34;100.00;98326.93;1646353;87;21062;-72
2022/01/02 07:15:15;;;;;;;3.80;2.60;;;;;;;-0.33;100.00;98337.41;1646194;87;21540;-71
2022/01/02 07:17:44;;;;;;;3.53;2.57;;;;;;;-0.33;100.00;98333.93;1651308;86;21102;-71
2022/01/02 07:20:11;;;;;;;4.80;1.93;;;;;;;-0.34;100.00;98346.85;1660677;86;21547;-71
2022/01/02 07:22:41;;;;;;;2.73;1.80;;;;;;;-0.34;100.00;98346.35;1639799;86;21082;-70
2022/01/02 07:25:09;;;;;;;5.10;1.60;;;;;;;-0.34;100.00;98359.63;1639418;86;21007;-71
2022/01/02 07:27:38;;;;;;;2.57;1.70;;;;;;;-0.35;100.00;98353.13;1639524;86;21059;-72
2022/01/02 07:30:07;;;;;;;1.60;1.50;;;;;;;-0.36;100.00;98363.42;1637478;86;21559;-70
2022/01/02 07:32:37;;;;;;;3.67;1.70;;;;;;;-0.37;100.00;98380.33;1616452;86;21621;-72
2022/01/02 07:35:06;;;;;;;2.13;1.60;;;;;;;-0.37;100.00;98377.20;1640277;86;21559;-72
2022/01/02 07:37:36;;;;;;;1.80;1.47;;;;;;;-0.37;100.00;98389.62;1661204;86;21098;-72
2022/01/02 07:40:04;;;;;;;2.13;1.30;;;;;;;-0.40;100.00;98393.41;1661563;86;21086;-71
2022/01/02 07:42:32;;;;;;;1.40;1.30;;;;;;;-0.44;100.00;98404.81;1661611;86;21113;-72
2022/01/02 07:45:01;;;;;;;2.87;1.60;;;;;;;-0.44;100.00;98417.26;1684044;84;21026;-71
2022/01/02 07:47:28;;;;;;;1.90;1.50;;;;;;;-0.44;100.00;98426.05;1689067;84;21041;-72
2022/01/02 07:49:55;;;;;;;1.43;1.20;;;;;;;-0.43;100.00;98434.34;1712207;84;20983;-71
2022/01/02 07:52:22;;;;;;;3.20;1.90;;;;;;;-0.40;100.00;98447.86;1712292;84;21025;-70
2022/01/02 07:54:49;;;;;;;1.80;1.40;;;;;;;-0.37;100.00;98450.70;1712279;84;21026;-72
2022/01/02 07:57:23;;;;;;;1.70;1.60;;;;;;;-0.34;100.00;98449.11;1712345;84;21073;-69
2022/01/02 07:59:50;;;;;;;1.57;1.40;;;;;;;-0.31;100.00;98448.83;1693098;83;21014;-71
2022/01/02 08:02:17;;;;;;;1.37;1.23;;;;;;;-0.25;100.00;98449.11;1757037;81;21027;-72
2022/01/02 08:04:45;;;;;;;2.60;1.87;;;;;;;-0.21;100.00;98458.47;1743540;81;21475;-71
2022/01/02 08:07:11;;;;;;;2.67;1.40;;;;;;;-0.18;100.00;98451.19;1762936;81;21058;-71
2022/01/02 08:09:39;;;;;;;1.33;0.90;;;;;;;-0.20;100.00;98468.09;1739373;82;21025;-72
2022/01/02 08:12:07;;;;;;;1.37;1.27;;;;;;;-0.24;100.00;98471.19;1749803;81;21063;-72
2022/01/02 08:14:34;;;;;;;2.40;1.23;;;;;;;-0.30;100.00;98482.36;1749849;81;21497;-70
2022/01/02 08:17:01;;;;;;;2.57;1.40;;;;;;;-0.34;100.00;98497.74;1739701;82;21032;-71
2022/01/02 08:19:28;;;;;;;2.50;1.33;;;;;;;-0.34;100.00;98507.04;1752738;81;21040;-71
2022/01/02 08:21:55;;;;;;;2.60;1.63;;;;;;;-0.36;100.00;98522.28;1739008;82;21004;-70
2022/01/02 08:24:23;;;;;;;3.50;1.63;;;;;;;-0.41;100.00;98561.69;1757504;81;21067;-71
2022/01/02 08:26:51;;;;;;;3.23;2.30;;;;;;;-0.48;100.00;98605.23;1757828;81;21477;-71
2022/01/02 08:29:18;;;;;;;2.93;1.90;;;;;;;-0.54;100.00;98660.20;1738702;82;21074;-71
2022/01/02 08:31:45;;;;;;;1.47;1.37;;;;;;;-0.57;100.00;98721.53;1738767;82;20976;-70
2022/01/02 08:34:12;;;;;;;1.50;1.40;;;;;;;-0.59;100.00;98807.11;1757436;82;21008;-72
2022/01/02 08:36:40;;;;;;;1.77;1.40;;;;;;;-0.62;100.00;98905.61;1757788;82;21027;-71
2022/01/02 08:39:07;;;;;;;2.70;1.50;;;;;;;-0.63;100.00;99030.05;1757518;81;21031;-72
2022/01/02 08:41:34;;;;;;;2.60;1.60;;;;;;;-0.64;100.00;99149.16;1757721;82;21552;-72
2022/01/02 08:44:01;;;;;;;2.40;1.40;;;;;;;-0.62;100.00;99238.83;1757642;81;21035;-70
2022/01/02 08:46:28;;;;;;;1.50;1.10;;;;;;;-0.62;100.00;99335.75;1757853;80;21536;-71
2022/01/02 08:48:55;;;;;;;2.00;1.67;;;;;;;-0.62;100.00;99392.39;1757655;82;21044;-71
2022/01/02 08:51:24;;;;;;;1.90;1.30;;;;;;;-0.62;100.00;99423.38;1757613;81;21536;-70
2022/01/02 08:53:51;;;;;;;2.27;1.70;;;;;;;-0.62;100.00;99450.80;1738494;80;22095;-69
2022/01/02 08:56:17;;;;;;;2.33;1.97;;;;;;;-0.61;100.00;99476.88;1757799;82;21011;-71
2022/01/02 08:58:45;;;;;;;3.13;2.33;;;;;;;-0.61;100.00;99491.48;1757510;82;21016;-70
2022/01/02 09:01:12;;;;;;;2.23;1.90;;;;;;;-0.62;100.00;99500.39;1757710;81;20960;-72
2022/01/02 09:03:39;;;;;;;3.07;1.97;;;;;;;-0.64;100.00;99527.09;1741973;81;20994;-71
2022/01/02 09:06:06;;;;;;;2.23;1.83;;;;;;;-0.67;100.00;99541.91;1770883;80;20986;-73
2022/01/02 09:08:33;;;;;;;2.00;1.80;;;;;;;-0.68;100.00;99549.98;1739719;82;21051;-70
2022/01/02 09:11:02;;;;;;;1.90;1.53;;;;;;;-0.69;100.00;99562.41;1738702;82;21082;-72
2022/01/02 09:13:30;;;;;;;1.97;1.80;;;;;;;-0.70;100.00;99562.03;1738656;82;21028;-71
2022/01/02 09:15:57;;;;;;;7.50;3.07;;;;;;;-0.67;100.00;99573.77;1757993;82;21449;-73
2022/01/02 09:18:24;;;;;;;7.97;3.90;;;;;;;-0.64;100.00;99584.17;1738846;82;21051;-72
2022/01/02 09:20:52;;;;;;;6.37;3.60;;;;;;;-0.61;100.00;99590.57;1757766;81;21109;-72
2022/01/02 09:23:19;;;;;;;10.57;4.03;;;;;;;-0.59;100.00;99598.43;1738563;82;21012;-74
2022/01/02 09:25:46;;;;;;;3.83;2.30;;;;;;;-0.56;100.00;99602.20;1738777;82;21015;-73
2022/01/02 09:28:13;;;;;;;3.60;2.57;;;;;;;-0.55;100.00;99606.53;1738627;82;20986;-72
2022/01/02 09:30:40;;;;;;;2.47;1.60;;;;;;;-0.59;100.00;99621.00;1757957;81;21027;-70
2022/01/02 09:33:09;;;;;;;2.53;1.60;;;;;;;-0.57;100.00;99640.33;1738058;82;21638;-71
2022/01/02 09:35:38;;;;;;;2.10;1.53;;;;;;;-0.56;100.00;99646.52;1757497;82;21009;-69
2022/01/02 09:38:05;;;;;;;1.60;1.30;;;;;;;-0.58;100.00;99662.55;1757568;82;21055;-69
2022/01/02 09:40:32;;;;;;;1.43;1.33;;;;;;;-0.64;100.00;99671.81;1757618;82;21014;-71
2022/01/02 09:42:59;;;;;;;1.77;1.67;;;;;;;-0.67;100.00;99687.11;1757655;82;22197;-71
2022/01/02 09:45:27;;;;;;;4.53;2.17;;;;;;;-0.70;100.00;99685.98;1738302;82;21064;-69
2022/01/02 09:47:54;;;;;;;5.23;2.50;;;;;;;-0.70;100.00;99701.44;1757302;81;21048;-71
2022/01/02 09:50:21;;;;;;;8.80;3.60;;;;;;;-0.73;100.00;99718.06;1738320;82;21067;-71
2022/01/02 09:52:48;;;;;;;7.87;3.50;;;;;;;-0.80;100.00;99743.72;1757876;82;21490;-71
2022/01/02 09:55:15;;;;;;;5.87;3.03;;;;;;;-0.84;100.00;99758.63;1757651;82;21019;-69
2022/01/02 09:57:48;;;;;;;9.07;3.60;;;;;;;-0.83;100.00;99769.14;1738376;82;21071;-71
2022/01/02 10:00:16;;;;;;;;;;;;;;;-0.79;100.00;99783.06;1740819;82;21078;-69
2022/01/02 10:02:58;;;;;;;5.73;2.70;;;;;;;-0.79;100.00;99788.37;1749549;81;20126;-70
2022/01/02 10:05:27;;;;;;;3.95;1.80;;;;;;;-0.80;100.00;99799.47;1707609;83;21058;-72
2022/01/02 10:07:56;;;;;;;1.60;1.33;;;;;;;-0.82;100.00;99800.03;1730552;82;21004;-71
2022/01/02 10:10:34;;;;;;;1.10;1.00;;;;;;;-0.82;100.00;99811.14;1757657;81;21032;-72
2022/01/02 10:13:02;;;;;;;2.20;1.30;;;;;;;-0.86;100.00;99817.13;1738764;82;21048;-71
2022/01/02 10:15:31;;;;;;;1.83;1.60;;;;;;;-0.86;100.00;99825.09;1757690;82;21071;-73
2022/01/02 10:18:11;;;;;;;3.63;1.97;;;;;;;-0.85;100.00;99840.08;1738669;82;21485;-73
2022/01/02 10:20:46;;;;;;;1.90;1.70;;;;;;;-0.79;100.00;99833.50;1754871;81;20989;-74
2022/01/02 10:23:22;;;;;;;2.07;1.57;;;;;;;-0.75;100.00;99847.42;1752638;81;21020;-73
2022/01/02 10:25:55;;;;;;;3.53;2.10;;;;;;;-0.74;100.00;99855.28;1752208;81;21074;-73
2022/01/02 10:28:39;;;;;;;1.97;1.70;;;;;;;-0.72;100.00;99858.69;1741966;82;21055;-74
2022/01/02 10:31:12;;;;;;;4.50;2.17;;;;;;;-0.70;100.00;99869.20;1741554;82;21083;-72
2022/01/02 10:33:57;;;;;;;2.67;1.87;;;;;;;-0.75;100.00;99881.94;1741484;82;21040;-71
2022/01/02 10:36:37;;;;;;;2.77;2.03;;;;;;;-0.80;100.00;99895.51;1752160;81;21040;-70
2022/01/02 10:39:12;;;;;;;3.17;2.00;;;;;;;-0.79;100.00;99899.39;1741538;82;21576;-71
2022/01/02 10:41:45;;;;;;;3.83;2.47;;;;;;;-0.70;100.00;99890.45;1741623;81;21064;-72
2022/01/02 10:44:26;;;;;;;6.28;3.22;;;;;;;-0.60;100.00;99899.51;1752329;80;21602;-72
2022/01/02 10:47:15;;;;;;;4.90;2.90;;;;;;;-0.55;100.00;99916.44;1752295;82;21020;-72
2022/01/02 10:50:05;;;;;;;3.13;1.90;;;;;;;-0.61;100.00;99921.20;1741440;82;21040;-70
2022/01/02 10:52:40;;;;;;;4.37;2.40;;;;;;;-0.68;100.00;99941.16;1741236;82;21156;-71
2022/01/02 10:55:23;;;;;;;7.30;3.47;;;;;;;-0.81;100.00;99967.68;1724410;82;21516;-71
2022/01/02 10:58:00;;;;;;;10.23;4.17;;;;;;;-0.86;100.00;99956.99;1749589;82;21049;-72
2022/01/02 11:00:29;;;;;;;3.87;2.60;;;;;;;-0.84;100.00;99966.55;1653566;86;21094;-72
2022/01/02 11:02:56;;;;;;;5.80;3.37;;;;;;;-0.85;100.00;99971.50;1671066;86;21053;-71
2022/01/02 11:05:23;;;;;;;4.47;2.83;;;;;;;-0.86;100.00;99972.43;1667590;85;21423;-72
2022/01/02 11:07:58;;;;;;;5.90;3.17;;;;;;;-0.80;100.00;99980.02;1662749;86;21539;-70
2022/01/02 11:10:25;;;;;;;7.40;3.50;;;;;;;-0.75;100.00;99997.44;1676370;86;21023;-71
2022/01/02 11:12:53;;;;;;;15.20;5.03;;;;;;;-0.62;100.00;99999.66;1653400;86;21031;-72
2022/01/02 11:15:24;;;;;;;15.37;5.50;;;;;;;-0.46;100.00;100006.14;1653460;86;21102;-71
2022/01/02 11:17:52;;;;;;;11.37;4.20;;;;;;;-0.33;100.00;100020.33;1575196;91;21056;-72
2022/01/02 11:20:22;;;;;;;8.77;3.90;;;;;;;-0.28;100.00;100020.03;1593898;89;21119;-71
2022/01/02 11:23:14;;;;;;;9.67;3.70;;;;;;;-0.37;100.00;100035.23;1574098;90;21088;-70
2022/01/02 11:25:50;;;;;;;8.68;3.47;;;;;;;-0.54;100.00;100041.18;1566929;91;21183;-72
2022/01/02 11:28:43;;;;;;;5.73;3.30;;;;;;;-0.80;100.00;100046.39;1552564;91;21048;-71
2022/01/02 11:31:11;;;;;;;7.92;3.40;;;;;;;-0.99;100.00;100052.50;1554109;91;21143;-72
2022/01/02 11:33:45;;;;;;;4.10;2.83;;;;;;;-1.02;100.00;100056.66;1553859;91;21565;-72
2022/01/02 11:36:30;;;;;;;4.50;2.77;;;;;;;-0.87;100.00;100053.02;1637762;87;21053;-71
2022/01/02 11:39:06;;;;;;;3.60;2.10;;;;;;;-0.69;100.00;100056.32;1553505;91;21235;-73
2022/01/02 11:41:44;;;;;;;2.10;1.90;;;;;;;-0.56;100.00;100065.67;1554735;91;21602;-72
2022/01/02 11:44:13;;;;;;;3.67;2.20;;;;;;;-0.47;100.00;100069.05;1534704;91;21553;-73